Time;durP1;ratioP1;P1;durP2;ratioP2;P2;SDS_P1;SDS_P2;PMS_P1;PMS_P2;Temp;Humidity;BMP_temperature;BMP_pressure;BME280_temperature;BME280_humidity;BME280_pressure;Samples;Min_cycle;Max_cycle;Signal;HPM_P1;HPM_P2
2021/09/21 00:00:25;;;;;;;7.32;3.53;;;15.00;95.10;;;;;;5074655;28;20016;-74
2021/09/21 00:02:50;;;;;;;7.40;3.13;;;15.00;94.70;;;;;;5075944;28;20024;-73
2021/09/21 00:05:16;;;;;;;7.07;3.75;;;15.00;93.60;;;;;;5075894;28;20027;-74
2021/09/21 00:07:42;;;;;;;6.80;3.45;;;14.90;94.00;;;;;;5075634;28;20048;-73
2021/09/21 00:10:09;;;;;;;6.85;3.58;;;14.90;94.30;;;;;;5076095;28;20382;-73
2021/09/21 00:12:35;;;;;;;10.02;4.03;;;14.80;94.60;;;;;;5076336;28;20421;-73
2021/09/21 00:15:01;;;;;;;7.55;3.60;;;14.80;94.60;;;;;;5076012;28;20025;-72
2021/09/21 00:17:27;;;;;;;7.32;3.10;;;14.80;94.50;;;;;;5075657;28;20131;-72
2021/09/21 00:19:53;;;;;;;6.05;3.28;;;14.80;93.90;;;;;;5075912;28;20443;-73
2021/09/21 00:22:18;;;;;;;6.90;3.42;;;14.80;93.90;;;;;;5075543;28;20486;-73
2021/09/21 00:24:44;;;;;;;9.60;4.15;;;14.70;94.60;;;;;;5075549;28;20020;-74
2021/09/21 00:27:09;;;;;;;6.25;3.78;;;14.70;95.00;;;;;;5075489;28;20024;-75
2021/09/21 00:29:35;;;;;;;9.35;4.03;;;14.70;94.70;;;;;;5075450;28;20028;-74
2021/09/21 00:32:01;;;;;;;8.55;3.97;;;14.60;94.90;;;;;;5075648;28;20054;-72
2021/09/21 00:34:37;;;;;;;8.25;4.53;;;14.50;95.00;;;;;;5075324;28;20425;-74
2021/09/21 00:37:09;;;;;;;8.82;3.80;;;14.50;95.30;;;;;;5075538;28;20027;-74
2021/09/21 00:39:34;;;;;;;10.18;4.10;;;14.40;95.50;;;;;;5075534;28;20138;-74
2021/09/21 00:42:00;;;;;;;7.78;3.97;;;14.40;95.70;;;;;;5075527;28;20055;-74
2021/09/21 00:44:27;;;;;;;7.57;3.70;;;14.50;95.60;;;;;;5075630;28;20009;-74
2021/09/21 00:46:52;;;;;;;8.88;4.30;;;14.40;95.60;;;;;;5075439;28;20033;-72
2021/09/21 00:49:18;;;;;;;9.55;4.28;;;14.40;95.80;;;;;;5075059;28;20498;-72
2021/09/21 00:51:44;;;;;;;9.23;4.18;;;14.30;96.00;;;;;;5075311;28;20498;-71
2021/09/21 00:54:10;;;;;;;10.95;4.47;;;14.40;96.20;;;;;;5075305;28;20067;-73
2021/09/21 00:56:37;;;;;;;8.90;4.38;;;14.40;96.10;;;;;;5074858;28;20041;-75
2021/09/21 00:59:02;;;;;;;8.20;4.30;;;14.40;95.70;;;;;;5074809;28;20075;-74
2021/09/21 01:01:28;;;;;;;9.02;3.90;;;14.30;96.20;;;;;;5074828;28;20024;-73
2021/09/21 01:03:54;;;;;;;8.13;4.68;;;14.30;96.30;;;;;;5074832;28;20100;-74
2021/09/21 01:12:38;;;;;;;10.13;4.30;;;14.30;96.20;;;;;;5964791;23;21039;-71
2021/09/21 01:21:23;;;;;;;6.72;4.05;;;14.20;96.30;;;;;;4369466;28;20041;-77
2021/09/21 01:23:54;;;;;;;7.57;4.03;;;14.10;95.60;;;;;;5015139;28;20471;-78
2021/09/21 01:26:22;;;;;;;7.20;4.25;;;14.00;96.40;;;;;;5014704;28;20574;-75
2021/09/21 01:28:48;;;;;;;7.53;4.30;;;14.00;96.60;;;;;;5013438;28;20022;-79
2021/09/21 01:31:15;;;;;;;9.82;4.40;;;14.00;96.00;;;;;;5013339;28;20550;-77
2021/09/21 01:33:44;;;;;;;7.95;4.40;;;14.00;96.00;;;;;;5014549;28;20073;-76
2021/09/21 01:36:12;;;;;;;6.90;4.13;;;14.00;96.50;;;;;;5014831;28;20076;-77
2021/09/21 01:38:38;;;;;;;7.50;4.70;;;14.00;96.40;;;;;;5014759;28;20034;-77
2021/09/21 01:41:04;;;;;;;6.03;3.40;;;14.00;96.70;;;;;;5014987;28;20105;-75
2021/09/21 01:43:29;;;;;;;5.85;3.58;;;14.00;96.40;;;;;;5014735;28;20026;-77
2021/09/21 01:45:55;;;;;;;8.45;4.82;;;14.10;96.50;;;;;;5014293;28;20072;-77
2021/09/21 01:48:21;;;;;;;10.52;4.68;;;14.10;96.40;;;;;;5014311;28;20108;-77
2021/09/21 01:50:58;;;;;;;10.88;4.85;;;14.20;96.40;;;;;;5014579;28;20101;-77
2021/09/21 01:58:51;;;;;;;8.20;4.43;;;14.30;95.50;;;;;;5014137;28;20088;-75
2021/09/21 02:01:22;;;;;;;8.43;4.35;;;14.30;95.30;;;;;;5014357;28;20026;-76
2021/09/21 02:03:52;;;;;;;10.27;4.57;;;14.20;95.60;;;;;;5014111;28;20033;-76
2021/09/21 02:06:21;;;;;;;8.65;4.75;;;14.30;95.40;;;;;;5014294;28;20378;-76
2021/09/21 02:08:47;;;;;;;8.90;4.00;;;14.30;95.60;;;;;;5014210;28;20076;-75
2021/09/21 02:11:13;;;;;;;9.02;4.97;;;14.30;95.10;;;;;;5013947;28;20029;-77
2021/09/21 02:13:38;;;;;;;9.48;4.28;;;14.20;95.30;;;;;;5014227;28;20467;-76
2021/09/21 02:16:04;;;;;;;7.85;4.32;;;14.10;95.80;;;;;;5013863;28;20022;-75
2021/09/21 02:21:25;;;;;;;8.45;4.10;;;13.90;95.50;;;;;;4471967;23;22201;-76
2021/09/21 02:23:53;;;;;;;6.63;3.55;;;13.80;95.10;;;;;;5013849;28;20037;-78
2021/09/21 02:26:19;;;;;;;7.63;4.50;;;13.80;94.40;;;;;;5013970;28;20382;-78
2021/09/21 02:28:45;;;;;;;7.75;4.40;;;13.80;95.10;;;;;;5013737;28;20018;-78
2021/09/21 02:31:11;;;;;;;9.07;4.57;;;13.70;95.60;;;;;;5013672;28;20495;-78
2021/09/21 02:33:36;;;;;;;6.65;3.92;;;13.80;95.50;;;;;;5013899;28;20408;-78
2021/09/21 02:36:05;;;;;;;8.55;4.13;;;13.80;95.00;;;;;;5012261;28;20029;-77
2021/09/21 02:38:32;;;;;;;10.57;4.70;;;13.80;95.10;;;;;;5013564;28;20025;-77
2021/09/21 02:40:57;;;;;;;8.40;3.83;;;13.70;95.10;;;;;;5014094;28;20163;-78
2021/09/21 02:43:23;;;;;;;10.13;5.03;;;13.70;95.00;;;;;;5014065;28;20052;-76
2021/09/21 02:45:49;;;;;;;8.32;4.47;;;13.70;95.50;;;;;;5013659;28;20386;-76
2021/09/21 02:48:16;;;;;;;9.32;4.93;;;13.70;95.80;;;;;;5013475;28;20025;-79
2021/09/21 02:50:42;;;;;;;9.20;4.88;;;13.70;96.00;;;;;;5013716;28;20056;-76
2021/09/21 02:53:08;;;;;;;6.47;3.97;;;13.70;95.90;;;;;;5013954;28;20076;-77
2021/09/21 02:55:33;;;;;;;8.20;4.90;;;13.70;95.80;;;;;;5012112;28;20126;-76
2021/09/21 02:57:59;;;;;;;8.82;4.82;;;13.80;95.70;;;;;;5013637;28;20050;-78
2021/09/21 03:00:26;;;;;;;10.95;4.65;;;13.80;95.40;;;;;;5013348;28;20040;-77
2021/09/21 03:02:54;;;;;;;7.53;4.30;;;13.80;95.50;;;;;;5013885;28;20017;-77
2021/09/21 03:05:27;;;;;;;7.00;4.60;;;13.90;95.40;;;;;;5013616;28;20105;-75
2021/09/21 03:08:16;;;;;;;9.45;5.18;;;13.90;95.30;;;;;;5016309;28;20022;-77
2021/09/21 03:18:47;;;;;;;9.48;5.45;;;13.90;93.90;;;;;;5017111;28;20080;-78
2021/09/21 03:21:13;;;;;;;8.50;4.38;;;13.80;94.10;;;;;;5001823;28;20030;-77
2021/09/21 03:23:39;;;;;;;8.70;4.63;;;13.60;94.00;;;;;;4996970;28;20062;-77
2021/09/21 03:26:04;;;;;;;7.68;4.57;;;13.70;93.60;;;;;;4997289;28;20035;-76
2021/09/21 03:28:30;;;;;;;6.22;3.58;;;13.70;93.90;;;;;;4997340;28;20038;-76
2021/09/21 03:30:56;;;;;;;5.82;4.15;;;13.60;94.20;;;;;;4997246;28;20023;-76
2021/09/21 03:33:21;;;;;;;8.05;4.38;;;13.50;94.10;;;;;;4997508;28;20054;-75
2021/09/21 03:35:47;;;;;;;11.65;4.30;;;13.40;94.90;;;;;;4997216;28;20026;-76
2021/09/21 03:38:13;;;;;;;8.00;4.15;;;13.20;95.50;;;;;;4995867;28;20117;-76
2021/09/21 03:40:39;;;;;;;7.20;4.30;;;13.10;95.90;;;;;;4997418;28;20455;-75
2021/09/21 03:43:05;;;;;;;6.05;3.75;;;13.20;96.60;;;;;;4997074;28;20438;-75
2021/09/21 03:45:31;;;;;;;6.38;3.85;;;13.10;97.40;;;;;;4996993;28;20110;-76
2021/09/21 03:47:57;;;;;;;7.35;4.13;;;13.20;96.90;;;;;;4996882;28;20054;-77
2021/09/21 03:50:23;;;;;;;6.90;4.10;;;13.40;95.30;;;;;;4997213;28;20392;-78
2021/09/21 03:52:49;;;;;;;7.43;4.28;;;13.40;94.80;;;;;;4996853;28;20105;-78
2021/09/21 03:55:16;;;;;;;8.23;4.05;;;13.30;95.30;;;;;;4997087;28;20098;-75
2021/09/21 03:57:42;;;;;;;6.72;4.30;;;13.20;95.60;;;;;;4996782;28;20029;-77
2021/09/21 04:00:09;;;;;;;6.78;4.13;;;13.20;96.10;;;;;;4996759;28;20110;-76
2021/09/21 04:02:34;;;;;;;8.10;3.97;;;13.20;96.70;;;;;;4996703;28;20041;-77
2021/09/21 04:05:00;;;;;;;6.85;4.32;;;13.20;96.60;;;;;;4996929;28;20022;-77
2021/09/21 04:07:25;;;;;;;6.72;4.22;;;13.20;96.70;;;;;;4997085;28;20128;-78
2021/09/21 04:09:51;;;;;;;8.00;4.60;;;13.20;96.10;;;;;;4995305;28;20472;-75
2021/09/21 04:12:17;;;;;;;11.23;4.28;;;13.20;96.00;;;;;;4996561;28;20022;-76
2021/09/21 04:14:42;;;;;;;7.03;4.82;;;13.20;96.20;;;;;;4996750;28;20019;-76
2021/09/21 04:17:08;;;;;;;8.55;4.97;;;13.10;96.20;;;;;;4996665;28;20034;-78
2021/09/21 04:19:34;;;;;;;8.70;5.18;;;13.10;95.90;;;;;;4995046;28;20022;-75
2021/09/21 04:21:59;;;;;;;9.18;4.82;;;13.20;95.10;;;;;;4996207;28;20068;-75
2021/09/21 04:24:25;;;;;;;8.15;4.43;;;13.10;95.40;;;;;;4995060;28;20117;-76
2021/09/21 04:26:51;;;;;;;8.82;5.13;;;13.10;95.90;;;;;;4996213;28;20026;-78
2021/09/21 04:29:16;;;;;;;7.25;4.25;;;13.10;96.20;;;;;;4996204;28;20054;-77
2021/09/21 04:31:43;;;;;;;7.85;4.50;;;13.10;96.40;;;;;;4996735;28;20026;-76
2021/09/21 04:34:13;;;;;;;8.30;4.50;;;13.20;95.60;;;;;;4996913;28;20423;-78
2021/09/21 04:36:38;;;;;;;9.27;5.18;;;13.20;95.60;;;;;;4996423;28;20458;-78
2021/09/21 04:39:04;;;;;;;9.07;4.10;;;13.10;95.80;;;;;;4996310;28;20109;-77
2021/09/21 04:41:30;;;;;;;11.30;5.28;;;13.20;95.20;;;;;;4996004;28;20061;-78
2021/09/21 04:43:56;;;;;;;9.07;4.60;;;13.20;94.90;;;;;;4996219;28;20061;-74
2021/09/21 04:46:22;;;;;;;7.60;4.32;;;13.10;95.30;;;;;;4996129;28;20113;-77
2021/09/21 04:48:47;;;;;;;7.85;4.53;;;13.10;96.10;;;;;;4995832;28;20023;-75
2021/09/21 04:51:13;;;;;;;10.20;5.70;;;13.10;97.20;;;;;;4995876;28;20026;-75
2021/09/21 04:53:39;;;;;;;9.05;4.28;;;13.20;96.50;;;;;;4995810;28;20026;-76
2021/09/21 04:56:05;;;;;;;11.60;5.28;;;13.20;95.60;;;;;;4995759;28;20034;-77
2021/09/21 04:58:30;;;;;;;9.77;4.90;;;13.20;95.20;;;;;;4995717;28;20027;-76
2021/09/21 05:00:56;;;;;;;12.55;4.90;;;13.30;94.50;;;;;;4995914;28;20026;-77
2021/09/21 05:03:21;;;;;;;13.65;5.65;;;13.20;94.60;;;;;;4995622;28;20034;-75
2021/09/21 05:05:47;;;;;;;10.13;5.35;;;13.10;94.40;;;;;;4995471;28;20402;-75
2021/09/21 05:08:13;;;;;;;13.02;6.13;;;12.90;94.60;;;;;;4994205;28;20400;-77
2021/09/21 05:10:38;;;;;;;10.70;6.22;;;12.90;95.20;;;;;;4995739;28;20023;-76
2021/09/21 05:13:04;;;;;;;15.05;6.55;;;13.00;95.00;;;;;;4995414;28;20113;-75
2021/09/21 05:15:30;;;;;;;14.75;6.35;;;13.00;95.20;;;;;;4994024;28;20032;-76
2021/09/21 05:17:55;;;;;;;10.68;5.57;;;12.90;96.10;;;;;;4994090;28;20131;-76
2021/09/21 05:20:21;;;;;;;11.23;5.80;;;12.90;96.20;;;;;;4995188;28;20377;-76
2021/09/21 05:22:51;;;;;;;11.45;6.22;;;12.90;96.20;;;;;;4995001;28;20046;-77
2021/09/21 05:25:17;;;;;;;;;;;13.00;95.50;;;;;;4995622;28;20026;-78
2021/09/21 05:27:43;;;;;;;14.15;7.30;;;12.90;96.20;;;;;;4995065;28;20375;-78
2021/09/21 05:30:10;;;;;;;13.65;6.38;;;12.80;96.80;;;;;;4994254;28;20050;-77
2021/09/21 05:32:35;;;;;;;11.20;6.18;;;12.80;97.70;;;;;;4993802;28;20026;-75
2021/09/21 05:35:01;;;;;;;9.15;5.45;;;12.80;98.60;;;;;;4995016;28;20022;-77
2021/09/21 05:37:28;;;;;;;9.45;5.25;;;12.80;98.60;;;;;;4993680;28;20034;-74
2021/09/21 05:39:53;;;;;;;9.52;5.60;;;12.90;98.00;;;;;;4995204;28;20022;-78
2021/09/21 05:42:20;;;;;;;12.93;6.32;;;13.00;97.90;;;;;;4994861;28;20026;-75
2021/09/21 05:44:46;;;;;;;12.68;5.68;;;12.80;97.70;;;;;;4995286;28;20400;-77
2021/09/21 05:47:12;;;;;;;17.58;6.65;;;12.80;97.70;;;;;;4993408;28;20037;-75
2021/09/21 05:49:39;;;;;;;8.93;4.75;;;12.80;98.00;;;;;;4994996;28;20097;-77
2021/09/21 05:52:05;;;;;;;7.88;5.45;;;12.90;97.90;;;;;;4994693;28;20476;-76
2021/09/21 05:54:31;;;;;;;14.07;5.45;;;12.90;97.90;;;;;;4994904;28;20023;-77
2021/09/21 05:56:57;;;;;;;11.48;5.22;;;12.90;97.90;;;;;;4994601;28;20034;-75
2021/09/21 05:59:22;;;;;;;10.43;5.75;;;12.90;97.50;;;;;;4994523;28;20022;-75
2021/09/21 06:01:48;;;;;;;9.82;5.38;;;12.90;97.10;;;;;;4994778;28;20109;-77
2021/09/21 06:04:14;;;;;;;11.50;6.00;;;12.90;98.20;;;;;;4994750;28;20022;-75
2021/09/21 06:06:40;;;;;;;12.18;5.95;;;12.80;98.60;;;;;;4993111;28;20455;-75
2021/09/21 06:09:05;;;;;;;9.05;5.18;;;13.00;98.50;;;;;;4994697;28;20506;-76
2021/09/21 06:11:34;;;;;;;9.18;5.32;;;13.00;98.20;;;;;;4994379;28;20054;-76
2021/09/21 06:14:01;;;;;;;14.15;6.53;;;13.10;98.50;;;;;;4994603;28;20484;-78
2021/09/21 06:16:28;;;;;;;9.10;5.63;;;13.00;98.30;;;;;;4994539;28;20500;-77
2021/09/21 06:18:54;;;;;;;10.13;6.32;;;12.90;98.30;;;;;;4994245;28;20027;-76
2021/09/21 06:21:20;;;;;;;13.48;5.38;;;13.00;97.90;;;;;;4994094;28;20392;-76
2021/09/21 06:23:45;;;;;;;9.82;5.18;;;12.90;97.40;;;;;;4992711;28;20103;-77
2021/09/21 06:26:11;;;;;;;14.30;5.97;;;12.90;97.50;;;;;;4994363;28;20033;-77
2021/09/21 06:28:37;;;;;;;15.05;6.00;;;12.90;98.10;;;;;;4994116;28;20364;-77
2021/09/21 06:31:03;;;;;;;13.77;5.45;;;12.90;98.50;;;;;;4994333;28;20054;-74
2021/09/21 06:33:29;;;;;;;10.93;5.40;;;12.90;98.20;;;;;;4994019;28;20022;-77
2021/09/21 06:35:54;;;;;;;17.65;5.82;;;12.90;98.70;;;;;;4994278;28;20033;-76
2021/09/21 06:38:20;;;;;;;9.02;5.18;;;12.90;99.30;;;;;;4993969;28;20062;-75
2021/09/21 06:40:46;;;;;;;15.52;5.88;;;12.90;99.50;;;;;;4993802;28;20057;-76
2021/09/21 06:43:11;;;;;;;14.63;6.75;;;13.00;99.60;;;;;;4993914;28;20074;-75
2021/09/21 06:45:37;;;;;;;16.65;6.63;;;13.00;99.90;;;;;;4993870;28;20019;-77
2021/09/21 06:48:03;;;;;;;18.10;6.50;;;13.10;99.90;;;;;;4993772;28;20038;-76
2021/09/21 06:50:29;;;;;;;10.52;6.30;;;13.10;99.90;;;;;;4994037;28;20037;-78
2021/09/21 06:52:55;;;;;;;21.05;6.40;;;13.20;99.90;;;;;;4991400;28;20027;-79
2021/09/21 06:55:21;;;;;;;28.58;7.13;;;13.30;99.90;;;;;;4983474;28;20026;-82
2021/09/21 06:57:52;;;;;;;12.20;6.28;;;13.30;99.90;;;;;;4993449;28;20052;-80
2021/09/21 07:00:20;;;;;;;17.27;7.05;;;13.40;99.90;;;;;;4994030;28;20495;-80
2021/09/21 07:02:48;;;;;;;20.58;7.93;;;13.50;99.90;;;;;;4991739;28;20086;-81
2021/09/21 07:05:14;;;;;;;22.67;7.40;;;13.60;99.90;;;;;;4979760;28;20070;-81
2021/09/21 07:07:44;;;;;;;19.63;8.02;;;13.70;99.90;;;;;;4993147;28;20073;-80
2021/09/21 07:10:11;;;;;;;12.02;6.22;;;13.70;99.90;;;;;;4981762;28;20019;-83
2021/09/21 07:12:37;;;;;;;11.43;5.82;;;13.80;99.90;;;;;;4981217;28;20038;-81
2021/09/21 07:15:03;;;;;;;7.80;5.63;;;13.90;99.90;;;;;;4991007;28;20213;-80
2021/09/21 07:17:28;;;;;;;14.02;6.25;;;14.00;99.90;;;;;;4991722;28;20037;-79
2021/09/21 07:19:54;;;;;;;11.73;6.28;;;14.00;99.90;;;;;;4981766;28;20039;-73
2021/09/21 07:22:20;;;;;;;10.02;5.50;;;14.10;99.90;;;;;;4976336;28;20057;-83
2021/09/21 07:24:45;;;;;;;9.13;5.93;;;14.20;99.90;;;;;;4993126;28;20045;-74
2021/09/21 07:27:11;;;;;;;11.77;6.45;;;14.20;99.90;;;;;;4981969;28;20485;-75
2021/09/21 07:29:37;;;;;;;9.98;6.25;;;14.30;99.90;;;;;;4974136;28;20374;-81
2021/09/21 07:32:02;;;;;;;10.48;6.78;;;14.30;99.90;;;;;;4974191;28;20070;-79
2021/09/21 07:34:29;;;;;;;10.23;5.70;;;14.40;99.90;;;;;;4974344;28;20384;-83
2021/09/21 07:36:54;;;;;;;11.38;6.47;;;14.50;99.90;;;;;;4972617;28;20118;-79
2021/09/21 07:39:20;;;;;;;8.90;5.78;;;14.60;99.90;;;;;;4973857;28;20106;-79
2021/09/21 07:41:46;;;;;;;8.32;6.22;;;14.70;99.90;;;;;;4972427;28;20125;-81
2021/09/21 07:44:11;;;;;;;8.48;6.50;;;14.80;99.90;;;;;;4973933;28;20031;-79
2021/09/21 07:46:38;;;;;;;9.40;6.50;;;14.90;99.90;;;;;;4980626;28;20037;-77
2021/09/21 07:49:04;;;;;;;10.15;6.68;;;15.00;99.90;;;;;;4993872;28;20080;-80
2021/09/21 07:51:29;;;;;;;8.98;6.43;;;15.10;99.90;;;;;;4993223;28;20019;-79
2021/09/21 07:53:55;;;;;;;8.75;6.28;;;15.10;99.90;;;;;;4976711;28;20040;-78
2021/09/21 07:56:21;;;;;;;9.15;6.85;;;15.20;99.90;;;;;;4978158;28;20034;-78
2021/09/21 07:58:47;;;;;;;8.93;6.63;;;15.30;99.90;;;;;;4977660;28;20035;-80
2021/09/21 08:01:13;;;;;;;9.40;6.85;;;15.30;99.90;;;;;;4978678;28;20023;-82
2021/09/21 08:03:39;;;;;;;9.23;6.55;;;15.50;99.90;;;;;;4984706;28;20037;-82
2021/09/21 08:06:05;;;;;;;8.95;7.15;;;15.60;99.90;;;;;;4996903;28;20107;-83
2021/09/21 08:08:30;;;;;;;8.73;6.93;;;15.80;99.90;;;;;;4985171;28;20054;-82
2021/09/21 08:10:57;;;;;;;8.50;6.28;;;16.10;99.90;;;;;;4977255;28;20038;-78
2021/09/21 08:13:23;;;;;;;11.10;6.80;;;16.30;99.90;;;;;;4993828;28;20033;-78
2021/09/21 08:15:49;;;;;;;8.60;6.93;;;16.50;99.90;;;;;;4996396;28;20034;-80
2021/09/21 08:18:15;;;;;;;14.23;8.80;;;16.60;99.50;;;;;;4996849;28;20480;-79
2021/09/21 08:20:41;;;;;;;11.75;9.48;;;16.70;99.70;;;;;;4996483;28;20029;-75
2021/09/21 08:23:06;;;;;;;10.55;7.80;;;17.00;99.10;;;;;;4996236;28;20050;-81
2021/09/21 08:25:32;;;;;;;12.18;8.95;;;17.00;98.60;;;;;;4996120;28;20030;-80
2021/09/21 08:27:58;;;;;;;11.93;8.02;;;16.90;99.10;;;;;;4996815;28;20030;-81
2021/09/21 08:30:23;;;;;;;10.38;8.10;;;16.80;99.80;;;;;;4994164;28;20098;-82
2021/09/21 08:32:49;;;;;;;11.80;8.35;;;16.70;99.90;;;;;;4996232;28;20034;-79
2021/09/21 08:35:15;;;;;;;10.63;8.10;;;16.80;99.60;;;;;;4996433;28;20030;-78
2021/09/21 08:37:41;;;;;;;11.00;8.23;;;16.90;99.70;;;;;;4993724;28;20109;-79
2021/09/21 08:40:07;;;;;;;12.77;8.43;;;17.40;99.90;;;;;;4976626;28;20050;-82
2021/09/21 08:42:33;;;;;;;12.18;8.55;;;17.90;98.40;;;;;;4976482;28;20086;-82
2021/09/21 08:44:59;;;;;;;13.80;9.93;;;18.40;97.80;;;;;;4976508;28;20440;-80
2021/09/21 08:47:25;;;;;;;12.07;8.27;;;19.10;96.40;;;;;;4975257;28;20031;-79
2021/09/21 08:49:51;;;;;;;12.38;8.60;;;19.70;94.60;;;;;;4982663;28;20023;-80
2021/09/21 08:52:16;;;;;;;12.50;9.98;;;20.00;93.90;;;;;;4992521;28;20034;-79
2021/09/21 08:54:42;;;;;;;12.77;10.32;;;20.20;92.90;;;;;;4984024;28;20026;-81
2021/09/21 08:57:08;;;;;;;18.00;10.52;;;20.30;93.20;;;;;;4995610;28;20070;-81
2021/09/21 08:59:36;;;;;;;13.63;10.18;;;20.30;92.80;;;;;;4994477;28;20018;-81
2021/09/21 09:02:09;;;;;;;14.05;11.50;;;20.10;93.20;;;;;;4995740;28;20100;-81
2021/09/21 09:04:36;;;;;;;15.20;11.15;;;20.20;93.20;;;;;;4994961;28;20022;-81
2021/09/21 09:07:03;;;;;;;17.05;11.18;;;20.40;93.30;;;;;;4995469;28;20037;-80
2021/09/21 09:09:37;;;;;;;17.25;12.68;;;20.30;92.70;;;;;;4979542;28;20118;-80
2021/09/21 09:12:06;;;;;;;20.25;13.85;;;20.60;92.40;;;;;;4976396;28;20042;-78
2021/09/21 09:14:39;;;;;;;21.42;13.70;;;21.20;90.80;;;;;;4977193;28;20023;-82
2021/09/21 09:17:10;;;;;;;18.25;12.85;;;21.30;90.70;;;;;;4995601;28;20563;-79
2021/09/21 09:19:42;;;;;;;19.73;14.98;;;21.20;90.00;;;;;;4995576;28;20015;-78
2021/09/21 09:22:11;;;;;;;17.52;13.45;;;21.20;90.90;;;;;;4994870;28;20047;-82
2021/09/21 09:24:55;;;;;;;18.63;14.20;;;20.70;90.60;;;;;;4995235;28;20392;-81
2021/09/21 09:27:39;;;;;;;17.42;13.85;;;19.90;92.50;;;;;;4975995;28;20054;-78
2021/09/21 09:30:14;;;;;;;20.45;14.45;;;19.90;93.00;;;;;;4993234;28;20084;-78
2021/09/21 09:32:50;;;;;;;17.92;12.88;;;19.90;93.30;;;;;;4992505;28;20034;-79
2021/09/21 09:35:34;;;;;;;18.75;12.68;;;20.20;91.70;;;;;;4991801;28;20504;-80
2021/09/21 09:38:04;;;;;;;16.50;11.75;;;20.00;92.10;;;;;;4980921;28;20122;-76
2021/09/21 09:40:31;;;;;;;19.08;13.27;;;20.40;90.70;;;;;;4974015;28;20029;-79
2021/09/21 09:42:57;;;;;;;15.15;10.30;;;20.40;90.60;;;;;;4975184;28;20524;-81
2021/09/21 09:45:27;;;;;;;15.93;9.82;;;20.40;87.00;;;;;;4975414;28;20397;-81
2021/09/21 09:47:53;;;;;;;13.45;9.30;;;20.60;85.80;;;;;;4989284;28;20065;-82
2021/09/21 09:50:26;;;;;;;15.77;9.18;;;21.00;84.00;;;;;;4990003;28;20462;-82
2021/09/21 09:53:07;;;;;;;14.48;8.43;;;21.50;81.40;;;;;;4985262;28;20084;-80
2021/09/21 09:55:34;;;;;;;14.05;9.77;;;21.60;80.00;;;;;;4980753;28;20048;-80
2021/09/21 09:58:01;;;;;;;13.60;9.00;;;21.60;81.70;;;;;;4990696;28;20031;-79
2021/09/21 10:00:30;;;;;;;13.18;7.45;;;21.70;80.30;;;;;;4975449;28;20077;-87
2021/09/21 10:02:57;;;;;;;8.57;6.43;;;21.80;78.20;;;;;;4974799;28;20084;-87
2021/09/21 10:05:23;;;;;;;15.23;7.43;;;21.70;75.70;;;;;;4982376;28;20041;-87
2021/09/21 10:07:49;;;;;;;13.45;8.18;;;21.60;76.50;;;;;;4988800;28;20030;-83
2021/09/21 10:10:15;;;;;;;12.65;7.88;;;21.30;77.90;;;;;;4983063;28;20106;-83
2021/09/21 10:12:42;;;;;;;10.82;7.63;;;21.20;78.40;;;;;;4975170;28;20019;-83
2021/09/21 10:15:09;;;;;;;12.15;7.75;;;21.30;78.10;;;;;;4993763;28;20025;-83
2021/09/21 10:17:36;;;;;;;10.88;6.70;;;21.50;77.00;;;;;;4988459;28;20030;-78
2021/09/21 10:20:04;;;;;;;9.98;6.20;;;21.50;77.30;;;;;;4994151;28;20073;-83
2021/09/21 10:22:35;;;;;;;11.25;5.85;;;21.40;77.40;;;;;;4994032;28;20161;-74
2021/09/21 10:25:08;;;;;;;9.88;6.03;;;21.10;78.80;;;;;;4981971;28;20026;-75
2021/09/21 10:27:38;;;;;;;8.60;6.40;;;21.00;79.20;;;;;;4974115;28;20501;-75
2021/09/21 10:30:09;;;;;;;10.52;6.28;;;20.90;79.90;;;;;;4973822;28;20050;-74
2021/09/21 10:32:46;;;;;;;12.25;6.35;;;20.90;79.00;;;;;;4972381;28;20038;-75
2021/09/21 10:35:17;;;;;;;13.40;7.40;;;21.00;80.40;;;;;;4972437;28;20488;-75
2021/09/21 10:37:43;;;;;;;13.02;8.13;;;20.90;81.00;;;;;;4973993;28;20035;-75
2021/09/21 10:40:10;;;;;;;14.25;8.00;;;20.90;79.90;;;;;;4973939;28;20026;-76
2021/09/21 10:42:48;;;;;;;11.85;7.28;;;20.70;81.50;;;;;;4974102;28;20500;-75
2021/09/21 10:45:26;;;;;;;14.60;8.45;;;20.80;81.40;;;;;;4974618;28;20107;-75
2021/09/21 10:48:03;;;;;;;14.27;9.75;;;20.80;83.10;;;;;;4974504;28;20030;-75
2021/09/21 10:50:36;;;;;;;12.80;9.45;;;20.80;83.40;;;;;;4974154;28;20052;-75
2021/09/21 10:53:07;;;;;;;16.30;9.63;;;20.60;84.00;;;;;;4974388;28;20121;-74
2021/09/21 10:55:39;;;;;;;15.57;9.35;;;20.60;86.00;;;;;;4974453;28;20027;-74
2021/09/21 10:58:16;;;;;;;18.50;10.10;;;20.70;85.00;;;;;;4974815;28;20035;-75
2021/09/21 11:00:41;;;;;;;14.50;10.23;;;20.60;84.30;;;;;;4974379;28;20051;-75
2021/09/21 11:03:12;;;;;;;17.48;10.82;;;20.40;85.60;;;;;;4974576;28;20061;-75
2021/09/21 11:05:38;;;;;;;14.98;10.05;;;20.20;85.90;;;;;;4974299;28;20023;-74
2021/09/21 11:08:08;;;;;;;13.65;8.95;;;20.20;86.80;;;;;;4974217;28;20018;-75
2021/09/21 11:10:36;;;;;;;12.00;8.13;;;20.40;85.40;;;;;;4974266;28;20054;-75
2021/09/21 11:13:08;;;;;;;12.00;8.52;;;20.30;84.40;;;;;;4974491;28;20114;-75
2021/09/21 11:15:34;;;;;;;14.27;8.77;;;20.20;84.00;;;;;;4974502;28;20426;-75
2021/09/21 11:18:12;;;;;;;14.40;9.82;;;20.10;84.30;;;;;;4974086;28;20090;-74
2021/09/21 11:20:49;;;;;;;12.25;8.32;;;20.00;84.30;;;;;;4974360;28;20468;-75
2021/09/21 11:23:16;;;;;;;12.27;8.63;;;20.00;86.20;;;;;;4972594;28;20070;-75
2021/09/21 11:25:44;;;;;;;13.10;7.50;;;20.00;85.90;;;;;;4974090;28;20026;-75
2021/09/21 11:28:09;;;;;;;10.77;6.95;;;19.90;83.80;;;;;;4975642;28;20034;-75
2021/09/21 11:30:35;;;;;;;12.23;6.90;;;19.80;84.40;;;;;;4978148;28;20023;-74
2021/09/21 11:33:11;;;;;;;9.73;6.43;;;19.70;84.80;;;;;;4977839;28;20122;-75
2021/09/21 11:35:37;;;;;;;11.73;7.25;;;19.60;84.20;;;;;;4977804;28;20030;-75
2021/09/21 11:38:03;;;;;;;11.70;7.13;;;19.50;85.10;;;;;;4977668;28;20023;-75
2021/09/21 11:40:34;;;;;;;10.65;6.50;;;19.60;86.10;;;;;;4977705;28;20023;-74
2021/09/21 11:43:00;;;;;;;10.15;6.15;;;19.80;85.00;;;;;;4978235;28;20022;-75
2021/09/21 11:45:27;;;;;;;9.88;6.78;;;20.00;82.30;;;;;;4977635;28;20031;-74
2021/09/21 11:47:54;;;;;;;10.98;7.05;;;20.10;84.90;;;;;;4977856;28;20105;-75
2021/09/21 11:50:29;;;;;;;11.10;6.72;;;20.10;82.70;;;;;;4977577;28;20019;-75
2021/09/21 11:53:00;;;;;;;8.82;6.55;;;20.00;83.20;;;;;;4977807;28;20061;-74
2021/09/21 11:55:29;;;;;;;8.68;5.95;;;20.00;82.90;;;;;;4977489;28;20146;-75
2021/09/21 11:57:55;;;;;;;8.32;6.32;;;20.00;82.40;;;;;;4977329;28;20400;-75
2021/09/21 12:00:33;;;;;;;10.32;5.82;;;19.90;81.30;;;;;;4977372;28;20022;-75
2021/09/21 12:03:03;;;;;;;10.20;6.53;;;19.90;82.30;;;;;;4977877;28;20034;-75
2021/09/21 12:05:30;;;;;;;10.45;6.80;;;19.90;81.20;;;;;;4977525;28;20037;-75
2021/09/21 12:07:59;;;;;;;10.55;7.22;;;19.90;82.90;;;;;;4977184;28;20118;-75
2021/09/21 12:10:27;;;;;;;10.65;6.82;;;19.80;82.70;;;;;;4977139;28;20066;-74
2021/09/21 12:13:00;;;;;;;8.88;6.40;;;19.60;82.00;;;;;;4975832;28;20027;-74
2021/09/21 12:15:28;;;;;;;10.27;6.38;;;19.50;81.80;;;;;;4977201;28;20045;-74
2021/09/21 12:17:54;;;;;;;9.57;5.78;;;19.50;83.00;;;;;;4976830;28;20037;-75
2021/09/21 12:20:25;;;;;;;10.25;6.07;;;19.60;84.00;;;;;;4975556;28;20031;-74
2021/09/21 12:22:52;;;;;;;9.07;6.20;;;19.70;84.00;;;;;;4976651;28;20053;-75
2021/09/21 12:25:21;;;;;;;10.25;6.40;;;19.80;80.10;;;;;;4976758;28;20034;-74
2021/09/21 12:27:55;;;;;;;13.40;6.53;;;19.80;80.40;;;;;;4977029;28;20023;-74
2021/09/21 12:30:25;;;;;;;16.42;5.65;;;20.00;80.30;;;;;;4976758;28;20031;-75
2021/09/21 12:32:58;;;;;;;8.00;5.55;;;20.10;81.40;;;;;;4976649;28;20462;-75
2021/09/21 12:35:31;;;;;;;9.05;5.95;;;20.30;81.40;;;;;;4976932;28;20465;-74
2021/09/21 12:38:12;;;;;;;7.72;5.43;;;20.30;77.50;;;;;;4976781;28;20031;-75
2021/09/21 12:40:58;;;;;;;8.38;5.43;;;20.10;79.30;;;;;;4976829;28;20432;-75
2021/09/21 12:43:28;;;;;;;8.88;5.60;;;19.80;79.20;;;;;;4976816;28;20102;-74
2021/09/21 12:46:01;;;;;;;7.43;4.93;;;19.80;82.00;;;;;;4976723;28;20030;-74
2021/09/21 12:48:38;;;;;;;7.65;4.78;;;19.90;79.50;;;;;;4976943;28;20031;-76
2021/09/21 12:51:06;;;;;;;7.35;4.68;;;20.20;80.50;;;;;;4976358;28;20030;-75
2021/09/21 12:53:33;;;;;;;6.78;4.60;;;20.40;77.50;;;;;;4976295;28;20507;-75
2021/09/21 12:56:07;;;;;;;7.18;4.28;;;20.40;76.30;;;;;;4976160;28;20030;-75
2021/09/21 12:58:39;;;;;;;5.75;3.65;;;20.40;73.70;;;;;;4974941;28;20030;-75
2021/09/21 13:01:15;;;;;;;6.70;4.03;;;20.30;72.60;;;;;;4974701;28;20500;-75
2021/09/21 13:03:40;;;;;;;6.55;4.55;;;20.20;74.30;;;;;;4974816;28;20027;-74
2021/09/21 13:06:08;;;;;;;7.53;4.57;;;20.10;73.00;;;;;;4976039;28;20025;-75
2021/09/21 13:08:35;;;;;;;7.30;3.72;;;20.10;73.00;;;;;;4976292;28;20019;-74
2021/09/21 13:11:02;;;;;;;8.82;4.38;;;20.10;74.10;;;;;;4975982;28;20389;-75